createdAt,value
2022-08-31T00:00:37.710Z,101717.03
2022-08-31T00:03:26.586Z,101718.34
2022-08-31T00:06:03.489Z,101700.44
2022-08-31T00:08:32.900Z,101706.66
2022-08-31T00:11:01.060Z,101697.47
2022-08-31T00:13:29.267Z,101700.41
2022-08-31T00:15:57.686Z,101691.53
2022-08-31T00:18:25.096Z,101693.31
2022-08-31T00:20:52.348Z,101690.38
2022-08-31T00:23:19.693Z,101701.00
2022-08-31T00:25:49.391Z,101693.47
2022-08-31T00:28:19.716Z,101700.81
2022-08-31T00:30:47.462Z,101694.72
2022-08-31T00:33:14.664Z,101700.00
2022-08-31T00:35:44.137Z,101696.91
2022-08-31T00:38:13.006Z,101689.81
2022-08-31T00:40:47.359Z,101691.75
2022-08-31T00:43:52.606Z,101684.66
2022-08-31T00:46:28.136Z,101691.91
2022-08-31T00:49:04.444Z,101692.22
2022-08-31T00:51:49.715Z,101707.81
2022-08-31T00:54:31.089Z,101706.97
2022-08-31T00:56:59.796Z,101705.78
2022-08-31T00:59:29.823Z,101705.91
2022-08-31T01:01:57.054Z,101702.81
2022-08-31T01:04:24.671Z,101709.19
2022-08-31T01:06:53.440Z,101710.16
2022-08-31T01:09:29.420Z,101716.53
2022-08-31T01:11:57.152Z,101718.41
2022-08-31T01:14:25.528Z,101711.97
2022-08-31T01:16:56.328Z,101711.91
2022-08-31T01:19:50.119Z,101716.47
2022-08-31T01:22:54.292Z,101709.47
2022-08-31T01:25:21.653Z,101711.25
2022-08-31T01:27:48.821Z,101712.06
2022-08-31T01:30:25.963Z,101713.69
2022-08-31T01:32:53.267Z,101711.75
2022-08-31T01:35:21.168Z,101717.63
2022-08-31T01:37:48.649Z,101708.75
2022-08-31T01:40:16.493Z,101709.38
2022-08-31T01:42:43.875Z,101716.09
2022-08-31T01:45:12.960Z,101719.72
2022-08-31T01:47:41.640Z,101721.69
2022-08-31T01:50:10.065Z,101718.25
2022-08-31T01:52:40.226Z,101722.50
2022-08-31T01:55:09.058Z,101719.91
2022-08-31T01:57:36.819Z,101721.22
2022-08-31T02:00:09.531Z,101721.75
2022-08-31T02:02:37.335Z,101725.84
2022-08-31T02:05:06.039Z,101723.25
2022-08-31T02:07:33.295Z,101722.44
2022-08-31T02:10:00.316Z,101715.22
2022-08-31T02:12:27.434Z,101714.59
2022-08-31T02:14:54.493Z,101712.31
2022-08-31T02:17:21.664Z,101711.66
2022-08-31T02:19:48.717Z,101712.16
2022-08-31T02:22:15.836Z,101708.94
2022-08-31T02:24:42.918Z,101711.41
2022-08-31T02:27:10.046Z,101709.28
2022-08-31T02:29:37.260Z,101709.44
2022-08-31T02:32:05.222Z,101717.47
2022-08-31T02:34:32.694Z,101720.13
2022-08-31T02:36:59.775Z,101715.06
2022-08-31T02:39:26.956Z,101715.56
2022-08-31T02:41:54.707Z,101709.19
2022-08-31T02:44:21.749Z,101710.19
2022-08-31T02:46:48.889Z,101701.81
2022-08-31T02:49:16.142Z,101704.59
2022-08-31T02:51:44.717Z,101702.63
2022-08-31T02:54:13.988Z,101698.72
2022-08-31T02:56:41.399Z,101700.03
2022-08-31T02:59:09.563Z,101710.03
2022-08-31T03:01:38.192Z,101700.84
2022-08-31T03:04:05.396Z,101698.25
2022-08-31T03:06:32.971Z,101697.94
2022-08-31T03:09:00.350Z,101700.59
2022-08-31T03:11:28.312Z,101696.53
2022-08-31T03:13:58.453Z,101691.75
2022-08-31T03:16:26.327Z,101692.06
2022-08-31T03:18:53.624Z,101692.06
2022-08-31T03:21:20.708Z,101692.41
2022-08-31T03:23:47.740Z,101700.44
2022-08-31T03:26:14.715Z,101696.53
2022-08-31T03:28:42.204Z,101692.25
2022-08-31T03:31:11.282Z,101696.34
2022-08-31T03:33:38.934Z,101697.22
2022-08-31T03:36:07.277Z,101704.72
2022-08-31T03:38:35.118Z,101703.78
2022-08-31T03:41:02.977Z,101700.66
2022-08-31T03:43:30.040Z,101699.53
2022-08-31T03:45:57.327Z,101707.09
2022-08-31T03:48:24.453Z,101701.81
2022-08-31T03:50:51.581Z,101706.56
2022-08-31T03:53:22.691Z,101710.81
2022-08-31T03:55:50.708Z,101716.06
2022-08-31T03:58:17.754Z,101710.81
2022-08-31T04:00:44.856Z,101726.72
2022-08-31T04:03:12.205Z,101716.22
2022-08-31T04:05:45.537Z,101722.13
2022-08-31T04:08:14.862Z,101719.63
2022-08-31T04:10:46.408Z,101718.97
2022-08-31T04:13:13.569Z,101720.28
2022-08-31T04:15:40.803Z,101727.34
2022-08-31T04:18:08.486Z,101733.34
2022-08-31T04:20:43.500Z,101735.47
2022-08-31T04:23:10.581Z,101736.44
2022-08-31T04:25:42.033Z,101737.19
2022-08-31T04:28:10.324Z,101732.25
2022-08-31T04:30:43.386Z,101742.56
2022-08-31T04:33:10.648Z,101734.00
2022-08-31T04:35:42.213Z,101745.97
2022-08-31T04:38:12.067Z,101747.44
2022-08-31T04:40:43.831Z,101747.13
2022-08-31T04:43:11.414Z,101752.19
2022-08-31T04:45:44.635Z,101752.50
2022-08-31T04:48:13.418Z,101749.72
2022-08-31T04:50:42.744Z,101746.13
2022-08-31T04:53:11.479Z,101750.56
2022-08-31T04:55:43.721Z,101748.75
2022-08-31T04:58:13.133Z,101741.34
2022-08-31T05:00:44.233Z,101754.97
2022-08-31T05:03:11.494Z,101752.19
2022-08-31T05:05:42.203Z,101746.94
2022-08-31T05:08:09.624Z,101738.91
2022-08-31T05:10:36.790Z,101740.22
2022-08-31T05:13:03.943Z,101741.56
2022-08-31T05:15:31.097Z,101743.38
2022-08-31T05:17:58.446Z,101744.19
2022-08-31T05:20:25.870Z,101746.06
2022-08-31T05:22:52.868Z,101747.75
2022-08-31T05:25:20.039Z,101744.88
2022-08-31T05:27:48.139Z,101751.25
2022-08-31T05:30:15.388Z,101750.69
2022-08-31T05:32:42.496Z,101755.78
2022-08-31T05:35:09.529Z,101749.38
2022-08-31T05:37:36.758Z,101752.47
2022-08-31T05:40:05.484Z,101756.59
2022-08-31T05:42:32.730Z,101768.91
2022-08-31T05:45:00.017Z,101757.47
2022-08-31T05:47:27.274Z,101759.94
2022-08-31T05:49:54.365Z,101755.84
2022-08-31T05:52:24.956Z,101765.34
2022-08-31T05:54:52.358Z,101764.03
2022-08-31T05:57:21.442Z,101767.44
2022-08-31T05:59:51.648Z,101769.91
2022-08-31T06:02:18.762Z,101773.41
2022-08-31T06:04:45.915Z,101766.88
2022-08-31T06:07:12.998Z,101763.47
2022-08-31T06:09:40.913Z,101770.25
2022-08-31T06:12:13.134Z,101783.72
2022-08-31T06:14:44.239Z,101777.31
2022-08-31T06:17:13.251Z,101776.34
2022-08-31T06:19:40.243Z,101774.50
2022-08-31T06:22:07.304Z,101770.69
2022-08-31T06:24:34.369Z,101772.78
2022-08-31T06:27:04.320Z,101774.72
2022-08-31T06:29:31.943Z,101774.38
2022-08-31T06:32:00.708Z,101772.47
2022-08-31T06:34:29.271Z,101780.63
2022-08-31T06:36:56.455Z,101781.94
2022-08-31T06:39:24.109Z,101783.19
2022-08-31T06:41:52.781Z,101788.47
2022-08-31T06:44:24.044Z,101791.28
2022-08-31T06:46:53.129Z,101781.63
2022-08-31T06:49:20.633Z,101783.75
2022-08-31T06:51:47.802Z,101787.44
2022-08-31T06:54:29.472Z,101795.28
2022-08-31T06:56:59.586Z,101793.72
2022-08-31T06:59:29.925Z,101793.56
2022-08-31T07:02:03.056Z,101797.97
2022-08-31T07:04:38.800Z,101794.16
2022-08-31T07:07:11.494Z,101802.91
2022-08-31T07:09:41.275Z,101806.13
2022-08-31T07:12:12.250Z,101810.50
2022-08-31T07:14:39.814Z,101815.53
2022-08-31T07:17:08.499Z,101803.72
2022-08-31T07:19:35.789Z,101807.38
2022-08-31T07:22:09.501Z,101807.13
2022-08-31T07:24:40.488Z,101805.84
2022-08-31T07:27:16.607Z,101807.56
2022-08-31T07:29:43.993Z,101805.38
2022-08-31T07:32:16.291Z,101802.69
2022-08-31T07:34:44.472Z,101808.00
2022-08-31T07:37:30.423Z,101821.25
2022-08-31T07:40:16.369Z,101808.94
2022-08-31T07:42:47.096Z,101807.09
2022-08-31T07:45:29.046Z,101820.53
2022-08-31T07:47:59.981Z,101820.44
2022-08-31T07:50:30.809Z,101820.06
2022-08-31T07:52:59.227Z,101817.47
2022-08-31T07:55:29.431Z,101818.50
2022-08-31T07:57:57.375Z,101823.34
2022-08-31T08:00:30.026Z,101827.66
2022-08-31T08:03:07.923Z,101829.22
2022-08-31T08:05:38.886Z,101824.25
2022-08-31T08:08:13.541Z,101834.16
2022-08-31T08:10:46.695Z,101835.34
2022-08-31T08:13:20.448Z,101833.53
2022-08-31T08:15:51.872Z,101830.72
2022-08-31T08:18:20.499Z,101824.47
2022-08-31T08:20:48.344Z,101819.91
2022-08-31T08:23:26.690Z,101826.56
2022-08-31T08:26:01.229Z,101824.56
2022-08-31T08:28:40.056Z,101825.34
2022-08-31T08:31:18.966Z,101822.56
2022-08-31T08:33:46.819Z,101821.84
2022-08-31T08:36:17.144Z,101816.38
2022-08-31T08:38:47.640Z,101815.53
2022-08-31T08:41:25.291Z,101812.19
2022-08-31T08:44:00.760Z,101826.09
2022-08-31T08:46:48.085Z,101822.72
2022-08-31T08:49:49.838Z,101819.38
2022-08-31T08:52:41.635Z,101824.47
2022-08-31T08:55:23.986Z,101823.16
2022-08-31T08:57:52.197Z,101831.81
2022-08-31T09:00:28.632Z,101831.84
2022-08-31T09:03:04.582Z,101822.72
2022-08-31T09:06:08.051Z,101821.88
2022-08-31T09:08:56.277Z,101828.34
2022-08-31T09:11:55.035Z,101818.97
2022-08-31T09:14:53.975Z,101831.66
2022-08-31T09:18:15.389Z,101821.50
2022-08-31T09:20:42.462Z,101833.72
2022-08-31T09:23:10.114Z,101820.28
2022-08-31T09:25:52.286Z,101815.22
2022-08-31T09:28:49.847Z,101824.16
2022-08-31T09:31:41.361Z,101822.72
2022-08-31T09:34:32.068Z,101825.81
2022-08-31T09:37:25.238Z,101815.16
2022-08-31T09:39:54.830Z,101816.78
2022-08-31T09:42:34.101Z,101812.97
2022-08-31T09:45:25.616Z,101813.38
2022-08-31T09:47:58.458Z,101809.97
2022-08-31T09:50:38.949Z,101818.91
2022-08-31T09:53:48.059Z,101821.56
2022-08-31T09:56:24.026Z,101811.75
2022-08-31T09:59:05.062Z,101823.91
2022-08-31T10:01:46.371Z,101812.03
2022-08-31T10:04:36.933Z,101819.56
2022-08-31T10:08:04.539Z,101821.34
2022-08-31T10:10:41.120Z,101811.63
2022-08-31T10:13:24.532Z,101810.63
2022-08-31T10:15:59.694Z,101810.63
2022-08-31T10:18:57.973Z,101807.25
2022-08-31T10:22:01.326Z,101806.09
2022-08-31T10:24:46.305Z,101802.50
2022-08-31T10:27:32.361Z,101812.69
2022-08-31T10:30:27.584Z,101800.97
2022-08-31T10:33:23.862Z,101804.16
2022-08-31T10:36:01.392Z,101800.72
2022-08-31T10:38:41.468Z,101799.97
2022-08-31T10:41:17.331Z,101795.78
2022-08-31T10:44:18.275Z,101781.47
2022-08-31T10:46:46.097Z,101790.41
2022-08-31T10:49:14.083Z,101795.47
2022-08-31T10:52:29.421Z,101793.63
2022-08-31T10:55:25.722Z,101792.09
2022-08-31T10:58:27.448Z,101789.97
2022-08-31T11:01:23.077Z,101796.09
2022-08-31T11:04:47.112Z,101790.50
2022-08-31T11:07:43.389Z,101790.88
2022-08-31T11:10:54.414Z,101785.59
2022-08-31T11:14:17.210Z,101776.31
2022-08-31T11:17:18.959Z,101778.94
2022-08-31T11:20:06.026Z,101774.78
2022-08-31T11:23:45.002Z,101771.19
2022-08-31T11:26:57.174Z,101768.78
2022-08-31T11:30:06.662Z,101773.09
2022-08-31T11:32:51.035Z,101773.00
2022-08-31T11:35:56.023Z,101765.72
2022-08-31T11:38:54.570Z,101764.19
2022-08-31T11:41:39.678Z,101767.13
2022-08-31T11:44:30.504Z,101755.16
2022-08-31T11:47:35.717Z,101764.00
2022-08-31T11:50:32.794Z,101757.47
2022-08-31T11:53:38.204Z,101758.22
2022-08-31T11:56:06.718Z,101761.78
2022-08-31T11:58:42.444Z,101752.44
2022-08-31T12:01:12.326Z,101755.91
2022-08-31T12:03:55.831Z,101754.31
2022-08-31T12:06:25.901Z,101756.38
2022-08-31T12:09:36.985Z,101753.66
2022-08-31T12:12:52.057Z,101737.94
2022-08-31T12:15:39.082Z,101739.63
2022-08-31T12:19:08.321Z,101736.50
2022-08-31T12:22:22.830Z,101727.34
2022-08-31T12:25:35.456Z,101737.56
2022-08-31T12:28:54.339Z,101738.50
2022-08-31T12:31:21.491Z,101737.66
2022-08-31T12:34:06.832Z,101732.38
2022-08-31T12:36:37.434Z,101729.09
2022-08-31T12:39:21.319Z,101723.25
2022-08-31T12:42:05.361Z,101732.19
2022-08-31T12:44:46.702Z,101727.41
2022-08-31T12:47:38.010Z,101724.91
2022-08-31T12:50:18.223Z,101720.94
2022-08-31T12:53:27.383Z,101726.22
2022-08-31T12:56:21.458Z,101722.13
2022-08-31T12:59:56.928Z,101718.03
2022-08-31T13:02:20.546Z,101725.53
2022-08-31T13:04:49.258Z,101724.16
2022-08-31T13:07:35.710Z,101724.44
2022-08-31T13:10:15.494Z,101712.75
2022-08-31T13:13:04.942Z,101718.78
2022-08-31T13:15:42.362Z,101711.91
2022-08-31T13:18:28.293Z,101710.41
2022-08-31T13:21:09.548Z,101698.63
2022-08-31T13:23:43.348Z,101699.66
2022-08-31T13:26:25.576Z,101697.31
2022-08-31T13:29:07.715Z,101696.81
2022-08-31T13:31:56.647Z,101684.66
2022-08-31T13:34:25.018Z,101701.59
2022-08-31T13:36:59.841Z,101702.09
2022-08-31T13:39:42.869Z,101695.38
2022-08-31T13:42:24.630Z,101698.19
2022-08-31T13:45:09.836Z,101705.19
2022-08-31T13:47:48.898Z,101692.47
2022-08-31T13:50:56.324Z,101697.19
2022-08-31T13:54:03.901Z,101699.72
2022-08-31T13:56:51.010Z,101684.41
2022-08-31T13:59:23.938Z,101685.88
2022-08-31T14:02:05.809Z,101683.09
2022-08-31T14:04:43.985Z,101686.56
2022-08-31T14:07:20.524Z,101689.22
2022-08-31T14:10:15.083Z,101695.03
2022-08-31T14:13:15.482Z,101697.34
2022-08-31T14:16:02.361Z,101696.31
2022-08-31T14:18:45.341Z,101698.31
2022-08-31T14:21:21.930Z,101695.94
2022-08-31T14:24:02.681Z,101681.94
2022-08-31T14:26:44.237Z,101688.34
2022-08-31T14:29:16.770Z,101684.81
2022-08-31T14:31:56.304Z,101689.19
2022-08-31T14:34:36.935Z,101683.59
2022-08-31T14:37:19.903Z,101677.91
2022-08-31T14:39:55.439Z,101679.56
2022-08-31T14:42:30.299Z,101670.78
2022-08-31T14:45:06.989Z,101679.66
2022-08-31T14:47:44.079Z,101680.88
2022-08-31T14:50:24.854Z,101674.41
2022-08-31T14:52:55.640Z,101684.94
2022-08-31T14:55:28.450Z,101681.38
2022-08-31T14:58:08.487Z,101677.59
2022-08-31T15:00:49.757Z,101673.81
2022-08-31T15:03:24.466Z,101670.53
2022-08-31T15:05:51.645Z,101676.22
2022-08-31T15:08:23.262Z,101680.34
2022-08-31T15:11:06.317Z,101679.34
2022-08-31T15:16:04.396Z,101674.13
2022-08-31T15:18:36.666Z,101678.03
2022-08-31T15:21:06.465Z,101675.91
2022-08-31T15:23:34.128Z,101671.75
2022-08-31T15:26:06.437Z,101670.94
2022-08-31T15:28:41.957Z,101674.41
2022-08-31T15:31:28.630Z,101678.38
2022-08-31T15:34:01.404Z,101668.13
2022-08-31T15:36:28.595Z,101666.34
2022-08-31T15:38:59.025Z,101658.22
2022-08-31T15:41:29.313Z,101666.38
2022-08-31T15:43:57.216Z,101660.13
2022-08-31T15:46:43.109Z,101652.34
2022-08-31T15:49:11.364Z,101662.56
2022-08-31T15:51:49.004Z,101651.72
2022-08-31T15:54:22.928Z,101649.34
2022-08-31T15:56:55.469Z,101645.25
2022-08-31T15:59:25.152Z,101641.38
2022-08-31T16:01:53.150Z,101638.06
2022-08-31T16:04:23.506Z,101644.97
2022-08-31T16:06:54.959Z,101640.66
2022-08-31T16:09:22.923Z,101638.28
2022-08-31T16:11:51.763Z,101645.34
2022-08-31T16:14:20.597Z,101632.03
2022-08-31T16:16:50.477Z,101633.69
2022-08-31T16:19:34.545Z,101633.47
2022-08-31T16:22:06.385Z,101632.31
2022-08-31T16:24:38.611Z,101638.00
2022-08-31T16:27:16.407Z,101635.06
2022-08-31T16:29:46.360Z,101644.78
2022-08-31T16:32:14.131Z,101630.56
2022-08-31T16:34:42.685Z,101631.28
2022-08-31T16:37:10.629Z,101628.69
2022-08-31T16:39:47.255Z,101628.13
2022-08-31T16:42:17.904Z,101620.72
2022-08-31T16:44:47.868Z,101620.78
2022-08-31T16:47:18.810Z,101632.22
2022-08-31T16:49:47.770Z,101629.75
2022-08-31T16:52:22.091Z,101627.38
2022-08-31T16:54:53.293Z,101629.13
2022-08-31T16:57:27.267Z,101634.34
2022-08-31T16:59:57.473Z,101632.28
2022-08-31T17:02:28.454Z,101632.09
2022-08-31T17:05:00.702Z,101630.59
2022-08-31T17:07:29.092Z,101632.41
2022-08-31T17:10:07.085Z,101626.06
2022-08-31T17:12:34.918Z,101634.59
2022-08-31T17:15:03.801Z,101629.56
2022-08-31T17:17:32.884Z,101627.31
2022-08-31T17:20:00.820Z,101623.25
2022-08-31T17:22:33.058Z,101633.31
2022-08-31T17:25:04.599Z,101632.03
2022-08-31T17:27:35.361Z,101629.03
2022-08-31T17:30:07.301Z,101631.28
2022-08-31T17:32:41.792Z,101634.81
2022-08-31T17:35:18.290Z,101632.53
2022-08-31T17:37:48.390Z,101647.56
2022-08-31T17:40:16.845Z,101634.13
2022-08-31T17:42:44.485Z,101638.69
2022-08-31T17:45:11.787Z,101639.88
2022-08-31T17:47:39.136Z,101650.47
2022-08-31T17:50:07.230Z,101655.31
2022-08-31T17:52:34.526Z,101649.91
2022-08-31T17:55:01.909Z,101658.84
2022-08-31T17:57:29.693Z,101662.81
2022-08-31T17:59:56.786Z,101658.97
2022-08-31T18:02:34.748Z,101663.88
2022-08-31T18:05:09.400Z,101657.56
2022-08-31T18:07:38.273Z,101659.59
2022-08-31T18:10:07.201Z,101667.66
2022-08-31T18:12:41.011Z,101666.94
2022-08-31T18:15:12.851Z,101676.66
2022-08-31T18:17:40.075Z,101672.06
2022-08-31T18:20:08.482Z,101684.25
2022-08-31T18:22:35.550Z,101687.50
2022-08-31T18:25:02.784Z,101693.81
2022-08-31T18:27:29.840Z,101697.09
2022-08-31T18:29:58.941Z,101702.22
2022-08-31T18:32:28.852Z,101705.50
2022-08-31T18:34:57.371Z,101694.50
2022-08-31T18:37:25.838Z,101697.25
2022-08-31T18:40:13.165Z,101695.69
2022-08-31T18:42:59.011Z,101707.63
2022-08-31T18:45:28.809Z,101715.41
2022-08-31T18:48:24.773Z,101705.47
2022-08-31T18:50:50.140Z,101708.47
2022-08-31T18:53:26.782Z,101710.88
2022-08-31T18:55:55.925Z,101707.34
2022-08-31T18:58:23.099Z,101706.56
2022-08-31T19:00:59.481Z,101707.88
2022-08-31T19:03:28.470Z,101706.94
2022-08-31T19:05:57.069Z,101703.66
2022-08-31T19:08:26.489Z,101709.91
2022-08-31T19:10:56.302Z,101708.69
2022-08-31T19:13:26.325Z,101701.00
2022-08-31T19:15:55.886Z,101706.13
2022-08-31T19:18:26.427Z,101710.06
2022-08-31T19:20:53.651Z,101709.09
2022-08-31T19:23:20.833Z,101708.94
2022-08-31T19:25:48.406Z,101703.34
2022-08-31T19:28:15.876Z,101710.44
2022-08-31T19:30:48.726Z,101714.75
2022-08-31T19:33:16.308Z,101715.91
2022-08-31T19:35:44.358Z,101722.97
2022-08-31T19:38:12.075Z,101705.69
2022-08-31T19:40:40.218Z,101711.16
2022-08-31T19:45:54.551Z,101714.44
2022-08-31T19:48:23.626Z,101712.47
2022-08-31T19:50:52.613Z,101714.84
2022-08-31T19:53:21.732Z,101722.75
2022-08-31T19:55:53.533Z,101716.53
2022-08-31T19:58:26.638Z,101709.47
2022-08-31T20:01:02.166Z,101719.03
2022-08-31T20:03:34.270Z,101722.31
2022-08-31T20:06:09.950Z,101706.53
2022-08-31T20:08:37.647Z,101711.16
2022-08-31T20:11:09.601Z,101714.78
2022-08-31T20:13:38.925Z,101709.34
2022-08-31T20:16:07.771Z,101715.59
2022-08-31T20:18:40.285Z,101718.06
2022-08-31T20:21:24.299Z,101722.88
2022-08-31T20:23:56.845Z,101717.63
2022-08-31T20:26:33.006Z,101721.72
2022-08-31T20:29:09.383Z,101720.44
2022-08-31T20:31:41.791Z,101714.88
2022-08-31T20:34:18.394Z,101725.56
2022-08-31T20:36:51.913Z,101721.16
2022-08-31T20:39:22.896Z,101717.88
2022-08-31T20:41:54.608Z,101721.47
2022-08-31T20:44:34.869Z,101727.28
2022-08-31T20:47:29.428Z,101727.78
2022-08-31T20:50:01.973Z,101733.06
2022-08-31T20:52:37.146Z,101719.59
2022-08-31T20:55:07.605Z,101730.25
2022-08-31T20:57:39.849Z,101737.53
2022-08-31T21:00:10.768Z,101731.59
2022-08-31T21:02:39.937Z,101731.78
2022-08-31T21:07:58.316Z,101733.94
2022-08-31T21:10:36.801Z,101737.06
2022-08-31T21:13:12.576Z,101743.59
2022-08-31T21:15:45.554Z,101738.19
2022-08-31T21:18:17.562Z,101746.25
2022-08-31T21:20:46.987Z,101743.59
2022-08-31T21:23:14.162Z,101751.66
2022-08-31T21:25:46.161Z,101746.59
2022-08-31T21:28:18.053Z,101743.28
2022-08-31T21:30:49.451Z,101748.41
2022-08-31T21:33:16.787Z,101742.47
2022-08-31T21:35:43.843Z,101741.00
2022-08-31T21:38:13.103Z,101748.22
2022-08-31T21:40:50.984Z,101744.94
2022-08-31T21:43:18.641Z,101742.63
2022-08-31T21:45:46.108Z,101748.72
2022-08-31T21:48:13.090Z,101751.03
2022-08-31T21:50:40.072Z,101746.72
2022-08-31T21:53:07.111Z,101746.72
2022-08-31T21:55:38.717Z,101751.81
2022-08-31T21:58:05.759Z,101748.19
2022-08-31T22:00:34.426Z,101752.63
2022-08-31T22:03:02.444Z,101758.56
2022-08-31T22:05:31.737Z,101757.59
2022-08-31T22:07:58.777Z,101752.81
2022-08-31T22:10:25.748Z,101751.16
2022-08-31T22:12:52.776Z,101752.50
2022-08-31T22:15:24.094Z,101757.72
2022-08-31T22:18:22.901Z,101760.88
2022-08-31T22:20:42.518Z,101761.19
2022-08-31T22:23:11.288Z,101757.09
2022-08-31T22:25:38.754Z,101767.47
2022-08-31T22:28:07.516Z,101768.91
2022-08-31T22:30:36.342Z,101766.78
2022-08-31T22:33:04.599Z,101766.59
2022-08-31T22:35:31.745Z,101767.78
2022-08-31T22:37:58.760Z,101762.50
2022-08-31T22:40:25.891Z,101766.78
2022-08-31T22:42:54.943Z,101762.19
2022-08-31T22:45:23.862Z,101762.19
2022-08-31T22:47:50.985Z,101768.25
2022-08-31T22:50:18.273Z,101766.28
2022-08-31T22:52:46.551Z,101767.09
2022-08-31T22:55:13.730Z,101765.97
2022-08-31T22:57:40.878Z,101770.25
2022-08-31T23:00:12.476Z,101769.41
2022-08-31T23:02:45.318Z,101763.00
2022-08-31T23:05:18.787Z,101774.00
2022-08-31T23:07:45.823Z,101766.13
2022-08-31T23:10:18.630Z,101767.47
2022-08-31T23:12:51.686Z,101776.31
2022-08-31T23:15:22.971Z,101765.81
2022-08-31T23:17:51.835Z,101762.53
2022-08-31T23:20:24.504Z,101763.19
2022-08-31T23:22:55.399Z,101767.47
2022-08-31T23:25:24.782Z,101758.25
2022-08-31T23:27:53.434Z,101757.63
2022-08-31T23:30:23.112Z,101758.94
2022-08-31T23:32:50.641Z,101759.44
2022-08-31T23:35:18.552Z,101759.72
2022-08-31T23:37:46.445Z,101760.25
2022-08-31T23:40:16.096Z,101759.72
2022-08-31T23:42:43.257Z,101756.44
2022-08-31T23:45:11.327Z,101755.47
2022-08-31T23:47:39.385Z,101755.63
2022-08-31T23:50:08.501Z,101759.56
2022-08-31T23:52:37.665Z,101754.13
2022-08-31T23:55:07.052Z,101754.47
2022-08-31T23:57:37.280Z,101761.38
